sensor_id;sensor_type;location;lat;lon;timestamp;pressure;altitude;pressure_sealevel;temperature;humidity
54876;BME280;40764;48.472;8.166;2023-08-21T00:05:35;98731.69;;;22.93;100.00
54876;BME280;40764;48.472;8.166;2023-08-21T00:11:35;98724.94;;;22.94;100.00
54876;BME280;40764;48.472;8.166;2023-08-21T00:17:35;98715.97;;;22.84;100.00
54876;BME280;40764;48.472;8.166;2023-08-21T00:23:36;98715.41;;;22.95;100.00
54876;BME280;40764;48.472;8.166;2023-08-21T00:29:36;98726.19;;;22.80;100.00
54876;BME280;40764;48.472;8.166;2023-08-21T00:35:36;98716.63;;;22.62;100.00
54876;BME280;40764;48.472;8.166;2023-08-21T00:41:37;98705.63;;;22.69;100.00
54876;BME280;40764;48.472;8.166;2023-08-21T00:47:37;98717.72;;;22.58;100.00
54876;BME280;40764;48.472;8.166;2023-08-21T00:53:38;98709.22;;;22.70;100.00
54876;BME280;40764;48.472;8.166;2023-08-21T00:59:38;98703.94;;;22.65;100.00
54876;BME280;40764;48.472;8.166;2023-08-21T01:05:39;98710.16;;;22.58;100.00
54876;BME280;40764;48.472;8.166;2023-08-21T01:11:48;98721.03;;;22.47;100.00
54876;BME280;40764;48.472;8.166;2023-08-21T01:17:49;98717.88;;;22.49;100.00
54876;BME280;40764;48.472;8.166;2023-08-21T01:23:50;98725.16;;;22.53;100.00
54876;BME280;40764;48.472;8.166;2023-08-21T01:29:51;98728.34;;;22.36;100.00
54876;BME280;40764;48.472;8.166;2023-08-21T01:35:51;98725.28;;;22.25;100.00
54876;BME280;40764;48.472;8.166;2023-08-21T01:41:52;98726.09;;;22.42;100.00
54876;BME280;40764;48.472;8.166;2023-08-21T01:47:52;98718.38;;;22.19;100.00
54876;BME280;40764;48.472;8.166;2023-08-21T01:53:53;98727.72;;;22.27;100.00
54876;BME280;40764;48.472;8.166;2023-08-21T01:59:53;98721.63;;;22.06;100.00
54876;BME280;40764;48.472;8.166;2023-08-21T02:05:56;98722.88;;;22.08;100.00
54876;BME280;40764;48.472;8.166;2023-08-21T02:11:58;98722.31;;;22.03;100.00
54876;BME280;40764;48.472;8.166;2023-08-21T02:17:58;98722.66;;;22.01;100.00
54876;BME280;40764;48.472;8.166;2023-08-21T02:23:59;98726.25;;;22.02;100.00
54876;BME280;40764;48.472;8.166;2023-08-21T02:29:59;98728.59;;;22.00;100.00
54876;BME280;40764;48.472;8.166;2023-08-21T02:35:59;98733.31;;;21.83;100.00
54876;BME280;40764;48.472;8.166;2023-08-21T02:42:01;98737.63;;;21.81;100.00
54876;BME280;40764;48.472;8.166;2023-08-21T02:48:01;98736.06;;;21.68;100.00
54876;BME280;40764;48.472;8.166;2023-08-21T02:54:01;98733.66;;;21.82;100.00
54876;BME280;40764;48.472;8.166;2023-08-21T03:00:02;98723.63;;;21.77;100.00
54876;BME280;40764;48.472;8.166;2023-08-21T03:06:03;98726.44;;;21.65;100.00
54876;BME280;40764;48.472;8.166;2023-08-21T03:12:04;98738.28;;;21.62;100.00
54876;BME280;40764;48.472;8.166;2023-08-21T03:18:04;98731.28;;;21.52;100.00
54876;BME280;40764;48.472;8.166;2023-08-21T03:24:05;98734.16;;;21.56;100.00
54876;BME280;40764;48.472;8.166;2023-08-21T03:30:06;98736.84;;;21.52;100.00
54876;BME280;40764;48.472;8.166;2023-08-21T03:36:07;98733.31;;;21.40;100.00
54876;BME280;40764;48.472;8.166;2023-08-21T03:42:07;98733.63;;;21.38;100.00
54876;BME280;40764;48.472;8.166;2023-08-21T03:48:07;98735.59;;;21.38;100.00
54876;BME280;40764;48.472;8.166;2023-08-21T03:54:09;98743.47;;;21.48;100.00
54876;BME280;40764;48.472;8.166;2023-08-21T04:00:11;98747.06;;;21.48;100.00
54876;BME280;40764;48.472;8.166;2023-08-21T04:06:12;98752.16;;;21.46;100.00
54876;BME280;40764;48.472;8.166;2023-08-21T04:12:12;98748.50;;;21.30;100.00
54876;BME280;40764;48.472;8.166;2023-08-21T04:18:15;98745.28;;;21.28;100.00
54876;BME280;40764;48.472;8.166;2023-08-21T04:24:15;98751.84;;;21.36;100.00
54876;BME280;40764;48.472;8.166;2023-08-21T04:30:15;98749.88;;;21.36;100.00
54876;BME280;40764;48.472;8.166;2023-08-21T04:36:16;98752.34;;;21.53;100.00
54876;BME280;40764;48.472;8.166;2023-08-21T04:42:17;98753.09;;;21.38;100.00
54876;BME280;40764;48.472;8.166;2023-08-21T04:48:17;98756.91;;;21.46;100.00
54876;BME280;40764;48.472;8.166;2023-08-21T04:54:18;98756.75;;;21.26;100.00
54876;BME280;40764;48.472;8.166;2023-08-21T05:00:18;98761.78;;;21.49;100.00
54876;BME280;40764;48.472;8.166;2023-08-21T05:06:18;98764.03;;;21.31;100.00
54876;BME280;40764;48.472;8.166;2023-08-21T05:12:19;98766.00;;;21.30;100.00
54876;BME280;40764;48.472;8.166;2023-08-21T05:18:19;98779.06;;;21.42;100.00
54876;BME280;40764;48.472;8.166;2023-08-21T05:24:20;98774.34;;;21.58;100.00
54876;BME280;40764;48.472;8.166;2023-08-21T05:30:20;98777.78;;;21.68;100.00
54876;BME280;40764;48.472;8.166;2023-08-21T05:36:22;98779.81;;;21.83;100.00
54876;BME280;40764;48.472;8.166;2023-08-21T05:42:22;98780.91;;;21.94;100.00
54876;BME280;40764;48.472;8.166;2023-08-21T05:48:22;98777.91;;;22.15;100.00
54876;BME280;40764;48.472;8.166;2023-08-21T05:54:23;98784.56;;;22.26;100.00
54876;BME280;40764;48.472;8.166;2023-08-21T06:00:24;98780.97;;;22.41;100.00
54876;BME280;40764;48.472;8.166;2023-08-21T06:06:25;98779.69;;;22.54;100.00
54876;BME280;40764;48.472;8.166;2023-08-21T06:12:25;98786.19;;;22.59;100.00
54876;BME280;40764;48.472;8.166;2023-08-21T06:18:25;98782.41;;;22.82;100.00
54876;BME280;40764;48.472;8.166;2023-08-21T06:24:25;98779.75;;;23.05;100.00
54876;BME280;40764;48.472;8.166;2023-08-21T06:30:26;98781.84;;;23.28;99.23
54876;BME280;40764;48.472;8.166;2023-08-21T06:36:27;98791.34;;;23.42;98.89
54876;BME280;40764;48.472;8.166;2023-08-21T06:42:28;98794.13;;;23.62;97.78
54876;BME280;40764;48.472;8.166;2023-08-21T06:48:29;98798.09;;;23.80;96.23
54876;BME280;40764;48.472;8.166;2023-08-21T06:54:29;98789.19;;;23.94;96.46
54876;BME280;40764;48.472;8.166;2023-08-21T07:00:29;98796.28;;;24.10;94.82
54876;BME280;40764;48.472;8.166;2023-08-21T07:06:30;98794.69;;;24.29;93.84
54876;BME280;40764;48.472;8.166;2023-08-21T07:12:31;98791.47;;;24.53;93.11
54876;BME280;40764;48.472;8.166;2023-08-21T07:18:39;98797.69;;;24.66;91.43
54876;BME280;40764;48.472;8.166;2023-08-21T07:24:40;98792.97;;;24.96;90.20
54876;BME280;40764;48.472;8.166;2023-08-21T07:30:40;98786.41;;;25.12;88.88
54876;BME280;40764;48.472;8.166;2023-08-21T07:36:41;98793.50;;;25.32;88.07
54876;BME280;40764;48.472;8.166;2023-08-21T07:42:41;98791.47;;;25.59;86.99
54876;BME280;40764;48.472;8.166;2023-08-21T07:48:42;98794.19;;;25.82;85.51
54876;BME280;40764;48.472;8.166;2023-08-21T07:54:42;98790.22;;;25.86;85.56
54876;BME280;40764;48.472;8.166;2023-08-21T08:00:43;98794.09;;;26.12;85.08
54876;BME280;40764;48.472;8.166;2023-08-21T08:06:43;98791.22;;;26.42;83.31
54876;BME280;40764;48.472;8.166;2023-08-21T08:12:44;98784.63;;;26.68;82.16
54876;BME280;40764;48.472;8.166;2023-08-21T08:18:44;98785.25;;;26.95;81.68
54876;BME280;40764;48.472;8.166;2023-08-21T08:24:45;98793.84;;;27.20;80.83
54876;BME280;40764;48.472;8.166;2023-08-21T08:30:46;98789.63;;;27.54;79.21
54876;BME280;40764;48.472;8.166;2023-08-21T08:36:47;98792.09;;;27.70;78.62
54876;BME280;40764;48.472;8.166;2023-08-21T08:42:47;98793.78;;;27.89;75.94
54876;BME280;40764;48.472;8.166;2023-08-21T08:48:47;98782.63;;;28.10;76.31
54876;BME280;40764;48.472;8.166;2023-08-21T08:54:48;98785.91;;;28.41;74.73
54876;BME280;40764;48.472;8.166;2023-08-21T09:00:48;98785.91;;;28.44;73.91
54876;BME280;40764;48.472;8.166;2023-08-21T09:06:48;98789.13;;;28.64;73.21
54876;BME280;40764;48.472;8.166;2023-08-21T09:12:49;98789.09;;;28.78;73.48
54876;BME280;40764;48.472;8.166;2023-08-21T09:18:53;98777.88;;;28.85;71.28
54876;BME280;40764;48.472;8.166;2023-08-21T09:25:04;98785.13;;;28.97;71.68
54876;BME280;40764;48.472;8.166;2023-08-21T09:31:07;98781.44;;;29.21;70.92
54876;BME280;40764;48.472;8.166;2023-08-21T09:37:07;98793.50;;;29.22;70.37
54876;BME280;40764;48.472;8.166;2023-08-21T09:43:09;98780.19;;;29.33;70.42
54876;BME280;40764;48.472;8.166;2023-08-21T09:49:13;98781.94;;;30.04;67.50
54876;BME280;40764;48.472;8.166;2023-08-21T09:55:15;98778.41;;;29.89;66.83
54876;BME280;40764;48.472;8.166;2023-08-21T10:01:17;98765.53;;;29.84;67.13
54876;BME280;40764;48.472;8.166;2023-08-21T10:07:21;98769.47;;;30.01;65.80
54876;BME280;40764;48.472;8.166;2023-08-21T10:13:22;98755.75;;;30.07;65.82
54876;BME280;40764;48.472;8.166;2023-08-21T10:19:22;98748.78;;;30.26;64.89
54876;BME280;40764;48.472;8.166;2023-08-21T10:25:24;98746.97;;;29.94;65.20
54876;BME280;40764;48.472;8.166;2023-08-21T10:31:37;98746.09;;;30.01;64.42
54876;BME280;40764;48.472;8.166;2023-08-21T10:44:07;98743.13;;;30.29;63.05
54876;BME280;40764;48.472;8.166;2023-08-21T10:50:08;98749.16;;;30.31;63.80
54876;BME280;40764;48.472;8.166;2023-08-21T10:56:09;98740.38;;;30.22;61.12
54876;BME280;40764;48.472;8.166;2023-08-21T11:02:14;98736.53;;;30.50;61.77
54876;BME280;40764;48.472;8.166;2023-08-21T11:08:14;98734.88;;;30.52;60.41
54876;BME280;40764;48.472;8.166;2023-08-21T11:14:14;98739.28;;;30.61;60.55
54876;BME280;40764;48.472;8.166;2023-08-21T11:20:15;98726.69;;;30.72;60.94
54876;BME280;40764;48.472;8.166;2023-08-21T11:26:15;98731.38;;;30.86;59.98
54876;BME280;40764;48.472;8.166;2023-08-21T11:32:17;98733.56;;;31.09;58.40
54876;BME280;40764;48.472;8.166;2023-08-21T11:38:22;98737.94;;;31.13;58.32
54876;BME280;40764;48.472;8.166;2023-08-21T11:44:22;98726.56;;;31.24;59.93
54876;BME280;40764;48.472;8.166;2023-08-21T11:50:23;98729.72;;;31.30;59.67
54876;BME280;40764;48.472;8.166;2023-08-21T11:56:27;98731.16;;;31.45;58.35
54876;BME280;40764;48.472;8.166;2023-08-21T12:02:28;98720.09;;;31.58;57.37
54876;BME280;40764;48.472;8.166;2023-08-21T12:08:29;98715.88;;;31.73;56.67
54876;BME280;40764;48.472;8.166;2023-08-21T12:14:29;98713.00;;;32.03;56.37
54876;BME280;40764;48.472;8.166;2023-08-21T12:20:29;98708.09;;;32.08;56.65
54876;BME280;40764;48.472;8.166;2023-08-21T12:26:30;98703.47;;;32.21;55.88
54876;BME280;40764;48.472;8.166;2023-08-21T12:32:30;98704.31;;;32.18;55.04
54876;BME280;40764;48.472;8.166;2023-08-21T12:38:30;98688.22;;;32.42;53.62
54876;BME280;40764;48.472;8.166;2023-08-21T12:44:31;98684.88;;;32.47;53.02
54876;BME280;40764;48.472;8.166;2023-08-21T12:50:32;98678.84;;;32.68;52.85
54876;BME280;40764;48.472;8.166;2023-08-21T12:56:32;98677.66;;;32.89;52.88
54876;BME280;40764;48.472;8.166;2023-08-21T13:02:32;98678.16;;;32.84;51.58
54876;BME280;40764;48.472;8.166;2023-08-21T13:08:32;98669.63;;;33.07;51.15
54876;BME280;40764;48.472;8.166;2023-08-21T13:14:33;98677.94;;;33.38;50.79
54876;BME280;40764;48.472;8.166;2023-08-21T13:20:33;98667.22;;;33.65;51.63
54876;BME280;40764;48.472;8.166;2023-08-21T13:26:34;98660.03;;;33.61;51.34
54876;BME280;40764;48.472;8.166;2023-08-21T13:32:34;98666.22;;;33.55;51.07
54876;BME280;40764;48.472;8.166;2023-08-21T13:38:34;98658.25;;;33.67;51.65
54876;BME280;40764;48.472;8.166;2023-08-21T13:44:35;98656.13;;;33.91;50.83
54876;BME280;40764;48.472;8.166;2023-08-21T13:50:35;98658.59;;;33.89;49.60
54876;BME280;40764;48.472;8.166;2023-08-21T13:56:35;98653.97;;;34.11;49.17
54876;BME280;40764;48.472;8.166;2023-08-21T14:02:36;98645.84;;;34.29;48.58
54876;BME280;40764;48.472;8.166;2023-08-21T14:08:37;98639.09;;;35.01;48.09
54876;BME280;40764;48.472;8.166;2023-08-21T14:14:37;98634.06;;;34.92;47.11
54876;BME280;40764;48.472;8.166;2023-08-21T14:20:38;98638.91;;;35.08;46.99
54876;BME280;40764;48.472;8.166;2023-08-21T14:26:38;98650.25;;;34.63;46.87
54876;BME280;40764;48.472;8.166;2023-08-21T14:32:40;98644.03;;;34.68;47.22
54876;BME280;40764;48.472;8.166;2023-08-21T14:38:40;98642.41;;;34.83;46.24
54876;BME280;40764;48.472;8.166;2023-08-21T14:44:40;98646.88;;;34.84;46.24
54876;BME280;40764;48.472;8.166;2023-08-21T14:50:41;98629.88;;;34.97;45.59
54876;BME280;40764;48.472;8.166;2023-08-21T14:56:41;98632.66;;;35.13;45.50
54876;BME280;40764;48.472;8.166;2023-08-21T15:02:42;98620.47;;;35.54;44.01
54876;BME280;40764;48.472;8.166;2023-08-21T15:08:42;98607.66;;;36.00;42.79
54876;BME280;40764;48.472;8.166;2023-08-21T15:14:43;98604.22;;;35.80;42.59
54876;BME280;40764;48.472;8.166;2023-08-21T15:20:43;98601.28;;;35.84;42.48
54876;BME280;40764;48.472;8.166;2023-08-21T15:26:43;98599.81;;;35.92;41.58
54876;BME280;40764;48.472;8.166;2023-08-21T15:32:44;98585.69;;;36.01;41.86
54876;BME280;40764;48.472;8.166;2023-08-21T15:38:44;98579.41;;;36.19;41.33
54876;BME280;40764;48.472;8.166;2023-08-21T15:44:45;98578.28;;;36.04;41.42
54876;BME280;40764;48.472;8.166;2023-08-21T15:50:45;98574.63;;;36.16;41.21
54876;BME280;40764;48.472;8.166;2023-08-21T15:56:46;98574.50;;;36.32;40.59
54876;BME280;40764;48.472;8.166;2023-08-21T16:02:47;98577.78;;;36.43;40.59
54876;BME280;40764;48.472;8.166;2023-08-21T16:08:47;98567.91;;;36.10;40.12
54876;BME280;40764;48.472;8.166;2023-08-21T16:14:48;98576.78;;;36.59;39.83
54876;BME280;40764;48.472;8.166;2023-08-21T16:20:48;98562.75;;;36.65;39.50
54876;BME280;40764;48.472;8.166;2023-08-21T16:26:48;98561.44;;;36.56;38.63
54876;BME280;40764;48.472;8.166;2023-08-21T16:32:49;98562.41;;;36.63;37.93
54876;BME280;40764;48.472;8.166;2023-08-21T16:38:51;98565.13;;;36.44;39.00
54876;BME280;40764;48.472;8.166;2023-08-21T16:44:51;98566.09;;;36.16;38.73
54876;BME280;40764;48.472;8.166;2023-08-21T16:50:51;98564.22;;;36.47;39.07
54876;BME280;40764;48.472;8.166;2023-08-21T16:56:51;98558.38;;;36.51;40.64
54876;BME280;40764;48.472;8.166;2023-08-21T17:02:52;98564.53;;;36.49;39.92
54876;BME280;40764;48.472;8.166;2023-08-21T17:08:52;98562.19;;;36.35;40.94
54876;BME280;40764;48.472;8.166;2023-08-21T17:14:53;98562.28;;;35.84;40.22
54876;BME280;40764;48.472;8.166;2023-08-21T17:20:53;98567.25;;;35.55;45.53
54876;BME280;40764;48.472;8.166;2023-08-21T17:26:53;98570.28;;;34.81;48.42
54876;BME280;40764;48.472;8.166;2023-08-21T17:32:54;98579.00;;;34.44;49.23
54876;BME280;40764;48.472;8.166;2023-08-21T17:38:56;98577.31;;;33.82;51.52
54876;BME280;40764;48.472;8.166;2023-08-21T17:44:56;98575.38;;;33.07;54.24
54876;BME280;40764;48.472;8.166;2023-08-21T17:50:56;98589.75;;;32.10;57.60
54876;BME280;40764;48.472;8.166;2023-08-21T17:56:59;98582.09;;;30.99;61.11
54876;BME280;40764;48.472;8.166;2023-08-21T18:02:59;98588.22;;;30.15;64.59
54876;BME280;40764;48.472;8.166;2023-08-21T18:09:00;98586.59;;;29.62;66.89
54876;BME280;40764;48.472;8.166;2023-08-21T18:15:02;98593.56;;;29.36;67.96
54876;BME280;40764;48.472;8.166;2023-08-21T18:21:03;98599.03;;;28.88;69.77
54876;BME280;40764;48.472;8.166;2023-08-21T18:27:05;98606.34;;;28.50;71.59
54876;BME280;40764;48.472;8.166;2023-08-21T18:33:06;98608.78;;;28.16;72.81
54876;BME280;40764;48.472;8.166;2023-08-21T18:39:06;98610.00;;;27.93;74.89
54876;BME280;40764;48.472;8.166;2023-08-21T18:45:06;98613.94;;;27.50;75.39
54876;BME280;40764;48.472;8.166;2023-08-21T18:51:07;98623.00;;;27.00;80.45
54876;BME280;40764;48.472;8.166;2023-08-21T18:57:07;98628.97;;;26.95;78.87
54876;BME280;40764;48.472;8.166;2023-08-21T19:03:08;98633.63;;;26.66;80.44
54876;BME280;40764;48.472;8.166;2023-08-21T19:09:09;98631.63;;;26.67;80.60
54876;BME280;40764;48.472;8.166;2023-08-21T19:15:09;98641.94;;;26.52;81.34
54876;BME280;40764;48.472;8.166;2023-08-21T19:21:13;98643.84;;;26.34;82.13
54876;BME280;40764;48.472;8.166;2023-08-21T19:27:13;98646.47;;;26.16;83.01
54876;BME280;40764;48.472;8.166;2023-08-21T19:33:14;98650.03;;;26.09;82.98
54876;BME280;40764;48.472;8.166;2023-08-21T19:39:15;98649.13;;;25.98;83.21
54876;BME280;40764;48.472;8.166;2023-08-21T19:45:16;98652.28;;;25.93;83.12
54876;BME280;40764;48.472;8.166;2023-08-21T19:51:19;98650.56;;;25.78;83.87
54876;BME280;40764;48.472;8.166;2023-08-21T19:57:19;98655.06;;;25.52;85.45
54876;BME280;40764;48.472;8.166;2023-08-21T20:03:20;98655.91;;;25.56;85.14
54876;BME280;40764;48.472;8.166;2023-08-21T20:09:20;98655.53;;;25.61;84.32
54876;BME280;40764;48.472;8.166;2023-08-21T20:15:21;98657.44;;;25.50;85.40
54876;BME280;40764;48.472;8.166;2023-08-21T20:21:22;98655.78;;;25.12;86.61
54876;BME280;40764;48.472;8.166;2023-08-21T20:27:22;98655.59;;;24.98;88.31
54876;BME280;40764;48.472;8.166;2023-08-21T20:33:23;98665.53;;;24.95;87.96
54876;BME280;40764;48.472;8.166;2023-08-21T20:39:23;98665.53;;;24.65;89.68
54876;BME280;40764;48.472;8.166;2023-08-21T20:45:24;98665.69;;;24.50;90.51
54876;BME280;40764;48.472;8.166;2023-08-21T20:51:24;98672.56;;;24.56;89.71
54876;BME280;40764;48.472;8.166;2023-08-21T20:57:25;98672.50;;;24.52;89.04
54876;BME280;40764;48.472;8.166;2023-08-21T21:03:26;98676.66;;;24.35;89.87
54876;BME280;40764;48.472;8.166;2023-08-21T21:09:26;98678.47;;;24.01;91.84
54876;BME280;40764;48.472;8.166;2023-08-21T21:15:28;98674.59;;;24.09;92.23
54876;BME280;40764;48.472;8.166;2023-08-21T21:21:28;98673.91;;;23.93;93.44
54876;BME280;40764;48.472;8.166;2023-08-21T21:27:29;98676.34;;;23.95;93.26
54876;BME280;40764;48.472;8.166;2023-08-21T21:33:29;98673.44;;;23.88;93.29
54876;BME280;40764;48.472;8.166;2023-08-21T21:39:29;98672.50;;;23.80;92.99
54876;BME280;40764;48.472;8.166;2023-08-21T21:45:31;98666.81;;;23.73;93.48
54876;BME280;40764;48.472;8.166;2023-08-21T21:51:31;98672.22;;;23.66;92.90
54876;BME280;40764;48.472;8.166;2023-08-21T21:57:32;98666.44;;;23.55;94.78
54876;BME280;40764;48.472;8.166;2023-08-21T22:03:32;98662.41;;;23.53;95.03
54876;BME280;40764;48.472;8.166;2023-08-21T22:09:33;98663.09;;;23.46;94.89
54876;BME280;40764;48.472;8.166;2023-08-21T22:15:33;98670.13;;;23.40;94.77
54876;BME280;40764;48.472;8.166;2023-08-21T22:21:37;98661.19;;;23.31;96.00
54876;BME280;40764;48.472;8.166;2023-08-21T22:27:38;98663.28;;;23.37;94.96
54876;BME280;40764;48.472;8.166;2023-08-21T22:33:38;98667.03;;;23.45;94.49
54876;BME280;40764;48.472;8.166;2023-08-21T22:39:38;98660.81;;;23.13;95.70
54876;BME280;40764;48.472;8.166;2023-08-21T22:45:39;98649.75;;;23.16;95.59
54876;BME280;40764;48.472;8.166;2023-08-21T22:51:40;98659.28;;;23.15;95.68
54876;BME280;40764;48.472;8.166;2023-08-21T22:57:40;98644.84;;;22.91;96.58
54876;BME280;40764;48.472;8.166;2023-08-21T23:03:41;98648.81;;;22.90;97.60
54876;BME280;40764;48.472;8.166;2023-08-21T23:09:41;98647.81;;;22.82;97.91
54876;BME280;40764;48.472;8.166;2023-08-21T23:15:48;98644.84;;;22.75;98.32
54876;BME280;40764;48.472;8.166;2023-08-21T23:21:49;98639.66;;;22.73;98.17
54876;BME280;40764;48.472;8.166;2023-08-21T23:27:49;98632.97;;;22.59;97.64
54876;BME280;40764;48.472;8.166;2023-08-21T23:33:49;98630.81;;;22.52;99.06
54876;BME280;40764;48.472;8.166;2023-08-21T23:39:50;98625.69;;;22.54;99.17
54876;BME280;40764;48.472;8.166;2023-08-21T23:45:50;98612.56;;;22.35;99.12
54876;BME280;40764;48.472;8.166;2023-08-21T23:51:51;98618.88;;;22.51;99.01
54876;BME280;40764;48.472;8.166;2023-08-21T23:57:52;98614.09;;;22.52;98.59
